Time;durP1;ratioP1;P1;durP2;ratioP2;P2;SDS_P1;SDS_P2;PMS_P1;PMS_P2;Temp;Humidity;BMP_temperature;BMP_pressure;BME280_temperature;BME280_humidity;BME280_pressure;Samples;Min_cycle;Max_cycle;Signal;HPM_P1;HPM_P2
2024/03/17 00:02:12;;;;;;;10.27;6.30;;;6.80;40.40;;;;;;5074185;28;20213;-72
2024/03/17 00:04:38;;;;;;;9.07;6.20;;;6.80;43.70;;;;;;5074171;28;20203;-72
2024/03/17 00:07:04;;;;;;;6.93;5.40;;;6.70;46.10;;;;;;5072446;28;20240;-71
2024/03/17 00:09:30;;;;;;;5.93;4.20;;;6.70;46.40;;;;;;5074639;28;20170;-72
2024/03/17 00:11:55;;;;;;;7.50;6.10;;;6.70;46.00;;;;;;5074540;28;20497;-72
2024/03/17 00:14:22;;;;;;;9.20;5.07;;;6.60;47.80;;;;;;5073676;28;20206;-72
2024/03/17 00:16:48;;;;;;;8.83;7.93;;;6.50;46.20;;;;;;5071576;28;20240;-73
2024/03/17 00:19:14;;;;;;;7.87;5.20;;;6.50;47.60;;;;;;5072589;28;20417;-73
2024/03/17 00:21:40;;;;;;;7.30;6.20;;;6.50;44.50;;;;;;5072607;28;20417;-72
2024/03/17 00:24:05;;;;;;;6.80;5.20;;;6.50;44.40;;;;;;5072331;28;20429;-72
2024/03/17 00:26:31;;;;;;;8.83;6.00;;;6.40;44.10;;;;;;5072474;28;20682;-72
2024/03/17 00:28:57;;;;;;;8.77;5.60;;;6.50;49.10;;;;;;5072749;28;20665;-72
2024/03/17 00:31:23;;;;;;;8.07;5.47;;;6.30;43.20;;;;;;5072566;28;20208;-71
2024/03/17 00:33:52;;;;;;;8.43;5.70;;;6.30;47.00;;;;;;5070883;28;20267;-72
2024/03/17 00:36:17;;;;;;;6.30;5.40;;;6.40;51.20;;;;;;5072038;28;20771;-72
2024/03/17 00:38:43;;;;;;;6.03;4.50;;;6.40;49.80;;;;;;5071531;28;20411;-72
2024/03/17 00:41:08;;;;;;;6.73;4.67;;;6.30;46.70;;;;;;5072515;28;20255;-72
2024/03/17 00:43:34;;;;;;;5.73;5.23;;;;;;;;;;5072190;28;20194;-72
2024/03/17 00:46:00;;;;;;;7.40;5.60;;;6.30;42.30;;;;;;5070771;28;20307;-72
2024/03/17 00:48:26;;;;;;;8.23;5.33;;;6.20;41.70;;;;;;5072099;28;20928;-71
2024/03/17 00:50:56;;;;;;;6.00;4.90;;;6.20;40.90;;;;;;5071985;28;20209;-73
2024/03/17 00:53:21;;;;;;;7.90;4.90;;;6.10;41.10;;;;;;5072007;28;20170;-72
2024/03/17 00:55:54;;;;;;;6.70;4.43;;;6.10;41.80;;;;;;5071791;28;20412;-72
2024/03/17 00:58:22;;;;;;;7.13;4.60;;;6.10;44.10;;;;;;5072756;28;20174;-74
2024/03/17 01:00:47;;;;;;;5.10;3.80;;;6.20;44.60;;;;;;5070628;28;20512;-73
2024/03/17 01:03:14;;;;;;;5.30;4.40;;;6.30;45.00;;;;;;5070445;28;20507;-72
2024/03/17 01:05:44;;;;;;;5.20;4.27;;;6.30;44.30;;;;;;5070227;28;20298;-73
2024/03/17 01:08:14;;;;;;;5.20;4.10;;;6.40;44.70;;;;;;5070567;28;20424;-72
2024/03/17 01:10:43;;;;;;;7.37;4.03;;;6.50;44.90;;;;;;5070455;28;20511;-73
2024/03/17 01:13:09;;;;;;;4.80;4.30;;;6.50;43.80;;;;;;5070665;28;20429;-72
2024/03/17 01:15:36;;;;;;;8.77;4.67;;;6.60;45.20;;;;;;5071434;28;20439;-72
2024/03/17 01:18:04;;;;;;;7.30;4.60;;;6.60;41.20;;;;;;5071735;28;20466;-73
2024/03/17 01:20:30;;;;;;;5.73;4.03;;;;;;;;;;5070524;28;20495;-72
2024/03/17 01:22:55;;;;;;;10.40;5.90;;;6.80;40.00;;;;;;5071629;28;20489;-73
2024/03/17 01:25:21;;;;;;;6.73;5.07;;;6.90;39.20;;;;;;5070423;28;20990;-72
2024/03/17 01:27:46;;;;;;;5.63;4.27;;;7.00;36.40;;;;;;5071644;28;20565;-72
2024/03/17 01:30:14;;;;;;;7.43;3.83;;;7.00;35.80;;;;;;5071587;28;20176;-73
2024/03/17 01:32:40;;;;;;;7.00;5.10;;;7.00;34.60;;;;;;5071528;28;20591;-71
2024/03/17 01:35:06;;;;;;;5.40;4.57;;;7.10;35.50;;;;;;5071366;28;20457;-73
2024/03/17 01:37:35;;;;;;;6.53;4.30;;;7.10;34.70;;;;;;5070211;28;20216;-72
2024/03/17 01:40:01;;;;;;;5.33;4.50;;;7.20;32.00;;;;;;5071797;28;20417;-74
2024/03/17 01:42:26;;;;;;;6.07;4.33;;;7.20;32.00;;;;;;5070329;28;20426;-73
2024/03/17 01:44:52;;;;;;;5.30;4.37;;;7.20;30.40;;;;;;5070279;28;20478;-73
2024/03/17 01:47:19;;;;;;;6.87;4.60;;;7.20;29.30;;;;;;5071833;28;20218;-73
2024/03/17 01:49:49;;;;;;;4.40;2.83;;;7.10;29.00;;;;;;5072825;28;20471;-72
2024/03/17 01:52:15;;;;;;;5.43;3.33;;;7.10;29.20;;;;;;5075677;28;20500;-73
2024/03/17 01:54:46;;;;;;;4.93;3.77;;;7.10;29.70;;;;;;5075503;28;20874;-73
2024/03/17 01:57:12;;;;;;;6.30;4.80;;;7.00;31.60;;;;;;5075646;28;20409;-73
2024/03/17 01:59:39;;;;;;;7.80;4.40;;;7.10;31.30;;;;;;5074444;28;20423;-71
2024/03/17 02:02:05;;;;;;;3.30;2.50;;;7.10;30.70;;;;;;5075433;28;20422;-72
2024/03/17 02:04:34;;;;;;;7.03;4.10;;;7.20;30.10;;;;;;5075100;28;20462;-72
2024/03/17 02:07:00;;;;;;;5.33;4.10;;;7.10;30.40;;;;;;5075204;28;20425;-73
2024/03/17 02:09:26;;;;;;;4.30;3.03;;;7.10;30.10;;;;;;5075333;28;20413;-72
2024/03/17 02:11:51;;;;;;;5.53;3.80;;;7.10;29.70;;;;;;5073867;28;20187;-72
2024/03/17 02:14:21;;;;;;;5.50;3.17;;;;;;;;;;5075944;28;20801;-73
2024/03/17 02:16:49;;;;;;;4.23;3.50;;;7.30;66.60;;;;;;5075214;28;20191;-74
2024/03/17 02:19:15;;;;;;;4.10;2.93;;;7.40;58.90;;;;;;5077192;28;20471;-73
2024/03/17 02:21:41;;;;;;;5.00;3.60;;;7.30;27.80;;;;;;5076877;28;20830;-73
2024/03/17 02:24:08;;;;;;;5.40;3.97;;;7.30;27.80;;;;;;5075858;28;20267;-74
2024/03/17 02:26:35;;;;;;;5.20;4.50;;;7.30;27.90;;;;;;5075125;28;20184;-72
2024/03/17 02:29:00;;;;;;;4.53;3.20;;;7.40;27.00;;;;;;5073760;28;20415;-71
2024/03/17 02:31:26;;;;;;;5.00;3.60;;;7.30;28.00;;;;;;5074861;28;20417;-72
2024/03/17 02:33:52;;;;;;;5.03;3.60;;;7.30;28.70;;;;;;5097178;22;20709;-67
2024/03/17 02:36:17;;;;;;;7.07;4.20;;;7.40;28.60;;;;;;5057008;28;20245;-70
2024/03/17 02:41:30;;;;;;;5.90;3.97;;;7.50;27.60;;;;;;5075359;28;20217;-68
2024/03/17 02:43:56;;;;;;;4.80;3.40;;;7.50;26.30;;;;;;5075176;28;20473;-69
2024/03/17 02:46:23;;;;;;;5.57;2.97;;;7.50;27.00;;;;;;5075381;28;20454;-68
2024/03/17 02:48:52;;;;;;;3.67;3.13;;;7.60;26.10;;;;;;5057401;28;20189;-69
2024/03/17 02:51:20;;;;;;;4.40;2.97;;;7.60;26.60;;;;;;5074827;28;20488;-68
2024/03/17 02:53:47;;;;;;;4.10;3.17;;;7.60;25.90;;;;;;5075106;28;20678;-69
2024/03/17 02:56:17;;;;;;;4.33;3.50;;;7.60;25.90;;;;;;5074481;28;20437;-68
2024/03/17 02:58:43;;;;;;;6.87;4.07;;;7.60;25.40;;;;;;5074961;28;20424;-69
2024/03/17 03:01:09;;;;;;;5.13;3.97;;;7.60;26.30;;;;;;5074152;28;20419;-68
2024/03/17 03:03:36;;;;;;;4.47;3.30;;;7.50;25.90;;;;;;5074707;28;20433;-68
2024/03/17 03:06:04;;;;;;;4.30;3.30;;;7.60;25.90;;;;;;5056842;28;20211;-68
2024/03/17 03:08:30;;;;;;;4.03;3.30;;;7.50;25.90;;;;;;5074435;28;20420;-69
2024/03/17 03:10:56;;;;;;;4.27;3.60;;;7.50;26.50;;;;;;5074448;28;20501;-68
2024/03/17 03:13:21;;;;;;;4.30;3.50;;;7.50;25.90;;;;;;5074822;28;20493;-69
2024/03/17 03:15:48;;;;;;;6.30;3.77;;;7.50;25.90;;;;;;5074561;28;20203;-69
2024/03/17 03:18:14;;;;;;;3.80;3.03;;;7.40;26.20;;;;;;5056617;28;20719;-68
2024/03/17 03:20:40;;;;;;;4.50;2.83;;;7.40;27.40;;;;;;5056643;28;20430;-69
2024/03/17 03:23:06;;;;;;;4.60;3.57;;;7.40;28.30;;;;;;5074551;28;20428;-68
2024/03/17 03:25:31;;;;;;;5.10;3.43;;;7.40;28.60;;;;;;5073967;28;20461;-68
2024/03/17 03:27:57;;;;;;;4.97;4.40;;;7.40;28.60;;;;;;5074356;28;20216;-69
2024/03/17 03:30:24;;;;;;;4.90;3.90;;;7.40;29.00;;;;;;5074373;28;20421;-69
2024/03/17 03:32:50;;;;;;;4.13;2.90;;;7.40;28.30;;;;;;5075557;28;20665;-69
2024/03/17 03:35:15;;;;;;;3.43;2.60;;;7.50;28.20;;;;;;5082249;28;20445;-68
2024/03/17 03:37:41;;;;;;;6.23;4.10;;;7.50;27.90;;;;;;5079678;28;20182;-69
2024/03/17 03:40:17;;;;;;;6.10;3.23;;;7.50;28.30;;;;;;5075217;28;20418;-69
2024/03/17 03:42:45;;;;;;;7.00;4.50;;;7.50;28.80;;;;;;5074740;28;20175;-69
2024/03/17 03:45:14;;;;;;;5.07;3.40;;;7.60;27.90;;;;;;5074602;28;20481;-68
2024/03/17 03:47:40;;;;;;;5.37;3.70;;;;;;;;;;5073876;28;20417;-67
2024/03/17 03:50:09;;;;;;;4.90;4.10;;;;;;;;;;5073952;28;20890;-68
2024/03/17 03:52:35;;;;;;;5.60;4.20;;;;;;;;;;5074081;28;20407;-68
2024/03/17 03:55:01;;;;;;;5.00;3.60;;;;;;;;;;5074001;28;20458;-68
2024/03/17 03:57:29;;;;;;;5.00;3.20;;;;;;;;;;5074369;28;20820;-69
2024/03/17 03:59:55;;;;;;;3.53;2.60;;;7.90;24.20;;;;;;5056411;28;20418;-68
2024/03/17 04:02:21;;;;;;;6.40;3.67;;;7.90;24.70;;;;;;5073812;28;20501;-68
2024/03/17 04:04:47;;;;;;;4.40;3.33;;;7.80;24.80;;;;;;5073783;28;20563;-68
2024/03/17 04:07:13;;;;;;;5.73;3.93;;;7.80;26.10;;;;;;5073745;28;20172;-68
2024/03/17 04:09:39;;;;;;;3.83;3.00;;;7.90;25.20;;;;;;5073977;28;20426;-68
2024/03/17 04:12:04;;;;;;;5.30;3.30;;;7.90;24.90;;;;;;5073510;28;20175;-68
2024/03/17 04:14:30;;;;;;;4.33;3.47;;;7.90;25.20;;;;;;5073949;28;20209;-68
2024/03/17 04:16:56;;;;;;;4.07;2.57;;;7.90;25.20;;;;;;5073602;28;20264;-69
2024/03/17 04:19:22;;;;;;;3.67;2.60;;;7.90;24.90;;;;;;5073702;28;20267;-69
2024/03/17 04:21:47;;;;;;;4.97;3.73;;;7.90;24.80;;;;;;5073350;28;20451;-69
2024/03/17 04:24:13;;;;;;;4.80;4.00;;;7.80;24.90;;;;;;5073096;28;20254;-69
2024/03/17 04:26:39;;;;;;;4.87;3.97;;;7.70;25.70;;;;;;5072850;28;20580;-68
2024/03/17 04:29:05;;;;;;;3.40;2.70;;;7.80;26.10;;;;;;5073028;28;20519;-69
2024/03/17 04:31:31;;;;;;;5.83;3.73;;;7.80;25.40;;;;;;5073609;28;20171;-68
2024/03/17 04:33:57;;;;;;;3.60;2.87;;;7.80;24.90;;;;;;5075616;28;20446;-69
2024/03/17 04:36:22;;;;;;;6.43;4.10;;;7.90;24.90;;;;;;5083890;28;20400;-70
2024/03/17 04:38:48;;;;;;;4.37;3.03;;;7.90;24.70;;;;;;5087939;28;20164;-68
2024/03/17 04:41:17;;;;;;;5.50;3.33;;;7.80;24.60;;;;;;5091373;28;20159;-68
2024/03/17 04:43:42;;;;;;;4.43;3.80;;;7.70;26.00;;;;;;5060203;28;20264;-68
2024/03/17 04:46:11;;;;;;;5.80;5.20;;;7.70;27.60;;;;;;5074117;28;20923;-68
2024/03/17 04:48:37;;;;;;;9.17;5.07;;;7.70;27.90;;;;;;5073295;28;20176;-69
2024/03/17 04:51:03;;;;;;;6.43;4.20;;;;;;;;;;5073114;28;20588;-68
2024/03/17 04:53:29;;;;;;;6.73;5.50;;;7.90;27.90;;;;;;5073049;28;20410;-68
2024/03/17 04:56:13;;;;;;;6.23;5.23;;;7.90;27.00;;;;;;5072587;28;20496;-68
2024/03/17 04:58:39;;;;;;;6.63;4.30;;;;;;;;;;5073814;28;20257;-69
2024/03/17 05:01:06;;;;;;;8.60;5.40;;;8.10;52.30;;;;;;5073278;28;20848;-69
2024/03/17 05:03:32;;;;;;;5.37;4.50;;;8.10;26.30;;;;;;5072647;28;20451;-69
2024/03/17 05:06:02;;;;;;;5.57;4.43;;;8.10;25.60;;;;;;5054200;28;20989;-69
2024/03/17 05:08:28;;;;;;;4.37;3.50;;;8.00;24.60;;;;;;5054721;28;20427;-68
2024/03/17 05:11:07;;;;;;;6.97;4.27;;;8.00;26.20;;;;;;5072643;28;20414;-68
2024/03/17 05:13:35;;;;;;;5.00;3.33;;;8.00;26.20;;;;;;5072732;28;20421;-68
2024/03/17 05:16:01;;;;;;;5.47;3.63;;;8.00;26.20;;;;;;5072536;28;20430;-68
2024/03/17 05:18:27;;;;;;;6.27;5.00;;;8.00;26.20;;;;;;5055163;28;20472;-67
2024/03/17 05:20:59;;;;;;;6.07;4.60;;;8.10;26.30;;;;;;5072929;28;20415;-68
2024/03/17 05:23:30;;;;;;;7.00;5.20;;;8.10;25.60;;;;;;5072737;28;20185;-69
2024/03/17 05:25:56;;;;;;;6.77;5.30;;;8.10;26.30;;;;;;5071835;28;20826;-68
2024/03/17 05:28:23;;;;;;;5.83;4.40;;;8.10;26.30;;;;;;5072577;28;20458;-68
2024/03/17 05:30:50;;;;;;;7.30;4.73;;;8.20;25.60;;;;;;5072530;28;20411;-69
2024/03/17 05:33:17;;;;;;;5.27;4.20;;;8.20;25.30;;;;;;5072435;28;20415;-69
2024/03/17 05:35:55;;;;;;;4.50;3.47;;;8.30;24.80;;;;;;5054044;28;20950;-68
2024/03/17 05:38:21;;;;;;;6.90;4.17;;;;;;;;;;5072240;28;20499;-68
2024/03/17 05:40:59;;;;;;;4.63;3.73;;;8.30;24.60;;;;;;5072144;28;20447;-67
2024/03/17 05:43:26;;;;;;;4.03;3.10;;;8.20;25.60;;;;;;5071855;28;20415;-68
2024/03/17 05:45:58;;;;;;;4.73;3.20;;;8.20;25.60;;;;;;5071793;28;20472;-69
2024/03/17 05:48:26;;;;;;;4.30;3.07;;;8.30;26.40;;;;;;5071878;28;20415;-69
2024/03/17 05:50:52;;;;;;;5.43;3.10;;;8.20;25.30;;;;;;5071798;28;20441;-69
2024/03/17 05:53:18;;;;;;;6.20;4.00;;;8.30;25.60;;;;;;5071780;28;20423;-69
2024/03/17 05:55:44;;;;;;;5.17;3.93;;;8.30;24.80;;;;;;5071434;28;20235;-70
2024/03/17 05:58:11;;;;;;;4.20;3.10;;;;;;;;;;5072514;28;20415;-69
2024/03/17 06:00:37;;;;;;;5.13;4.50;;;8.40;22.50;;;;;;5073716;28;20444;-70
2024/03/17 06:03:05;;;;;;;5.83;3.80;;;8.50;22.40;;;;;;5054766;28;20438;-70
2024/03/17 06:05:35;;;;;;;5.83;3.60;;;8.50;22.40;;;;;;5054159;28;20548;-70
2024/03/17 06:08:02;;;;;;;4.57;3.47;;;8.60;22.40;;;;;;5071844;28;20553;-69
2024/03/17 06:10:28;;;;;;;5.90;5.13;;;8.60;22.40;;;;;;5053631;28;20944;-69
2024/03/17 06:12:54;;;;;;;4.93;3.40;;;8.60;22.40;;;;;;5071447;28;20652;-69
2024/03/17 06:15:21;;;;;;;3.60;2.93;;;8.70;22.50;;;;;;5053759;28;21020;-69
2024/03/17 06:17:46;;;;;;;6.13;3.60;;;8.90;20.70;;;;;;5053597;28;20243;-69
2024/03/17 06:20:13;;;;;;;4.50;2.80;;;8.90;18.50;;;;;;5071674;28;20637;-69
2024/03/17 06:22:39;;;;;;;4.30;3.53;;;9.00;18.40;;;;;;5071691;28;20180;-69
2024/03/17 06:25:08;;;;;;;4.80;3.73;;;9.10;18.50;;;;;;5053186;28;20524;-70
2024/03/17 06:27:35;;;;;;;5.63;3.13;;;;;;;;;;5071518;28;20449;-70
2024/03/17 06:30:03;;;;;;;5.97;4.13;;;9.30;16.80;;;;;;5071599;28;20487;-71
2024/03/17 06:32:31;;;;;;;6.13;3.93;;;9.40;17.10;;;;;;5071653;28;20422;-70
2024/03/17 06:34:57;;;;;;;5.13;3.67;;;9.40;16.30;;;;;;5071325;28;20462;-70
2024/03/17 06:37:23;;;;;;;3.97;3.43;;;9.50;15.30;;;;;;5073290;28;20431;-71
2024/03/17 06:39:49;;;;;;;6.60;3.67;;;;;;;;;;5075049;28;20436;-69
2024/03/17 06:42:15;;;;;;;4.53;3.43;;;9.50;14.00;;;;;;5074768;28;20455;-69
2024/03/17 06:44:41;;;;;;;5.63;3.47;;;9.70;14.60;;;;;;5075417;28;21065;-70
2024/03/17 06:47:07;;;;;;;6.70;5.10;;;;;;;;;;5074650;28;20495;-70
2024/03/17 06:49:32;;;;;;;5.83;5.17;;;9.70;12.80;;;;;;5074735;28;20170;-70
2024/03/17 06:51:58;;;;;;;6.97;5.70;;;9.70;14.60;;;;;;5074757;28;20416;-70
2024/03/17 06:54:24;;;;;;;7.90;5.80;;;;;;;;;;5074591;28;20201;-70
2024/03/17 06:56:51;;;;;;;5.97;4.77;;;10.00;12.10;;;;;;5074563;28;20663;-70
2024/03/17 06:59:17;;;;;;;6.90;5.10;;;;;;;;;;5074406;28;20499;-71
2024/03/17 07:01:50;;;;;;;5.17;4.07;;;;;;;;;;5074339;28;20503;-71
2024/03/17 07:04:20;;;;;;;4.17;3.77;;;;;;;;;;5074152;28;20485;-70
2024/03/17 07:06:47;;;;;;;7.20;5.70;;;;;;;;;;5074051;28;20434;-70
2024/03/17 07:09:12;;;;;;;7.60;5.20;;;10.40;7.10;;;;;;5056067;28;20420;-70
2024/03/17 07:11:38;;;;;;;6.97;5.10;;;10.30;8.30;;;;;;5074193;28;20408;-70
2024/03/17 07:14:04;;;;;;;6.80;4.93;;;10.30;9.90;;;;;;5074262;28;20201;-70
2024/03/17 07:16:31;;;;;;;6.90;5.60;;;10.50;9.60;;;;;;5073869;28;20256;-70
2024/03/17 07:18:57;;;;;;;7.50;5.73;;;10.50;8.80;;;;;;5074665;28;20432;-70
2024/03/17 07:21:23;;;;;;;6.13;5.27;;;10.60;8.30;;;;;;5074558;28;20919;-68
2024/03/17 07:23:48;;;;;;;6.83;5.80;;;10.60;7.80;;;;;;5073711;28;20180;-70
2024/03/17 07:26:17;;;;;;;6.43;5.23;;;10.60;7.80;;;;;;5074046;28;20301;-68
2024/03/17 07:28:44;;;;;;;5.80;5.10;;;10.60;7.20;;;;;;5074454;28;20581;-69
2024/03/17 07:31:10;;;;;;;5.13;4.40;;;10.60;6.80;;;;;;5074548;28;20400;-68
2024/03/17 07:33:36;;;;;;;4.23;3.50;;;;;;;;;;5074262;28;20410;-67
2024/03/17 07:36:02;;;;;;;4.20;3.70;;;;;;;;;;5073953;28;20893;-68
2024/03/17 07:38:29;;;;;;;4.17;3.50;;;;;;;;;;5073717;28;20526;-69
2024/03/17 07:40:57;;;;;;;6.53;3.90;;;;;;;;;;5054322;28;20445;-69
2024/03/17 07:43:23;;;;;;;3.77;2.97;;;;;;;;;;5049403;28;20420;-68
2024/03/17 07:45:57;;;;;;;4.23;2.77;;;;;;;;;;5049903;28;20987;-67
2024/03/17 07:48:23;;;;;;;4.03;3.00;;;;;;;;;;5069531;28;20915;-67
2024/03/17 07:51:00;;;;;;;4.47;3.30;;;;;;;;;;5051813;28;20595;-67
2024/03/17 07:53:26;;;;;;;3.77;2.30;;;;;;;;;;5070254;28;20521;-73
2024/03/17 07:56:06;;;;;;;5.10;2.53;;;;;;;;;;5067596;28;20954;-67
2024/03/17 07:58:32;;;;;;;3.20;2.40;;;;;;;;;;5067127;28;20509;-67
2024/03/17 08:00:59;;;;;;;4.63;2.87;;;;;;;;;;5069469;28;20437;-66
2024/03/17 08:03:25;;;;;;;3.50;2.60;;;;;;;;;;5070561;28;20769;-68
2024/03/17 08:05:52;;;;;;;4.37;3.13;;;;;;;;;;5034466;28;20468;-66
2024/03/17 08:08:18;;;;;;;5.30;3.87;;;;;;;;;;5052761;28;20430;-68
2024/03/17 08:10:45;;;;;;;5.40;4.33;;;;;;;;;;5069166;28;20450;-69
2024/03/17 08:13:11;;;;;;;4.80;4.30;;;;;;;;;;5069208;28;20458;-69
2024/03/17 08:15:37;;;;;;;5.60;3.90;;;;;;;;;;5069688;28;20466;-68
2024/03/17 08:18:07;;;;;;;7.20;4.53;;;;;;;;;;5069610;28;20954;-68
2024/03/17 08:20:36;;;;;;;5.77;4.67;;;;;;;;;;5069346;28;20416;-67
2024/03/17 08:23:02;;;;;;;4.83;4.30;;;;;;;;;;5070897;28;20412;-67
2024/03/17 08:25:28;;;;;;;5.93;4.63;;;;;;;;;;5073763;28;20695;-68
2024/03/17 08:27:54;;;;;;;7.13;5.27;;;;;;;;;;5052749;28;20496;-68
2024/03/17 08:30:20;;;;;;;6.10;4.13;;;;;;;;;;5069939;28;20419;-67
2024/03/17 08:32:46;;;;;;;5.80;4.40;;;;;;;;;;5069377;28;20922;-69
2024/03/17 08:35:12;;;;;;;7.80;4.17;;;;;;;;;;5099350;22;20540;-72
2024/03/17 08:37:38;;;;;;;5.13;3.87;;;;;;;;;;5087189;28;20435;-72
2024/03/17 08:40:06;;;;;;;5.77;4.23;;;;;;;;;;5091159;28;20420;-73
2024/03/17 08:42:32;;;;;;;5.03;3.67;;;;;;;;;;5091399;28;20415;-72
2024/03/17 08:44:58;;;;;;;6.67;4.53;;;;;;;;;;5091690;28;20915;-72
2024/03/17 08:47:24;;;;;;;8.33;4.80;;;;;;;;;;5092840;28;20414;-72
2024/03/17 08:49:53;;;;;;;5.50;4.37;;;;;;;;;;5091870;28;20889;-73
2024/03/17 08:52:20;;;;;;;6.43;4.33;;;;;;;;;;5085770;28;20429;-74
2024/03/17 08:54:47;;;;;;;5.00;3.60;;;;;;;;;;5087328;28;20441;-71
2024/03/17 08:57:13;;;;;;;5.90;4.33;;;;;;;;;;5092467;28;20916;-73
2024/03/17 08:59:39;;;;;;;4.23;3.10;;;;;;;;;;5084358;28;20507;-73
2024/03/17 09:02:06;;;;;;;4.90;3.53;;;;;;;;;;5096369;28;20422;-72
2024/03/17 09:04:32;;;;;;;4.30;3.33;;;;;;;;;;5073131;28;20464;-72
2024/03/17 09:07:00;;;;;;;4.47;3.40;;;;;;;;;;5073903;28;20396;-71
2024/03/17 09:09:26;;;;;;;3.30;2.53;;;;;;;;;;5071041;28;20594;-73
2024/03/17 09:11:52;;;;;;;3.40;3.10;;;;;;;;;;5072398;28;20415;-73
2024/03/17 09:14:18;;;;;;;6.17;3.37;;;;;;;;;;5080635;28;20940;-73
2024/03/17 09:16:44;;;;;;;4.50;3.10;;;;;;;;;;5083824;28;20403;-73
2024/03/17 09:19:10;;;;;;;5.67;3.47;;;;;;;;;;5092411;28;20403;-73
2024/03/17 09:21:39;;;;;;;3.83;2.97;;;;;;;;;;5090838;28;20415;-72
2024/03/17 09:24:07;;;;;;;4.73;3.10;;;;;;;;;;5091714;28;20886;-73
2024/03/17 09:26:34;;;;;;;3.80;3.20;;;;;;;;;;5091999;28;20407;-72
2024/03/17 09:29:00;;;;;;;4.90;3.43;;;;;;;;;;5092054;28;20406;-73
2024/03/17 09:31:26;;;;;;;10.90;3.43;;;;;;;;;;5090643;28;20849;-73
2024/03/17 09:33:52;;;;;;;4.07;3.60;;;;;;;;;;5091783;28;21079;-73
2024/03/17 09:36:18;;;;;;;6.70;3.93;;;;;;;;;;5091497;28;20968;-71
2024/03/17 09:38:48;;;;;;;4.70;3.30;;;;;;;;;;5090481;28;20415;-71
2024/03/17 09:41:21;;;;;;;5.10;3.83;;;;;;;;;;5086242;28;20758;-73
2024/03/17 09:43:48;;;;;;;6.33;3.83;;;;;;;;;;5069581;28;20416;-73
2024/03/17 09:46:16;;;;;;;4.53;4.00;;;;;;;;;;5067084;28;20467;-72
2024/03/17 09:48:43;;;;;;;4.80;3.73;;;;;;;;;;5068078;28;20833;-72
2024/03/17 09:51:14;;;;;;;5.03;4.10;;;;;;;;;;5067503;28;20416;-74
2024/03/17 09:53:41;;;;;;;5.37;3.70;;;;;;;;;;5083825;28;20419;-72
2024/03/17 09:56:15;;;;;;;4.67;3.90;;;;;;;;;;5084381;28;20459;-70
2024/03/17 09:58:42;;;;;;;5.07;4.63;;;;;;;;;;5080781;28;20503;-71
2024/03/17 10:01:08;;;;;;;7.47;4.63;;;;;;;;;;5087580;28;20418;-74
2024/03/17 10:03:44;;;;;;;5.03;4.30;;;;;;;;;;5087410;28;20431;-72
2024/03/17 10:06:11;;;;;;;5.40;4.60;;;;;;;;;;5085963;28;21000;-74
2024/03/17 10:08:50;;;;;;;7.37;4.53;;;;;;;;;;5087670;28;20431;-71
2024/03/17 10:11:21;;;;;;;7.40;6.30;;;;;;;;;;5082325;28;20422;-70
2024/03/17 10:13:47;;;;;;;6.90;5.87;;;;;;;;;;5084496;28;20427;-72
2024/03/17 10:16:23;;;;;;;9.83;7.73;;;;;;;;;;5089651;28;20462;-71
2024/03/17 10:18:49;;;;;;;8.60;5.27;;;;;;;;;;5085138;28;20499;-72
2024/03/17 10:21:27;;;;;;;5.60;4.77;;;;;;;;;;5090852;28;20937;-73
2024/03/17 10:24:07;;;;;;;5.37;4.70;;;;;;;;;;5091348;28;20414;-73
2024/03/17 10:26:36;;;;;;;7.03;5.23;;;;;;;;;;5078439;28;20515;-75
2024/03/17 10:29:04;;;;;;;6.20;5.17;;;;;;;;;;5076126;28;20490;-71
2024/03/17 10:31:30;;;;;;;7.73;4.43;;;;;;;;;;5089336;28;20438;-77
2024/03/17 10:34:03;;;;;;;5.60;4.37;;;;;;;;;;5091522;28;20486;-68
2024/03/17 10:36:29;;;;;;;5.63;5.10;;;;;;;;;;5089295;28;20495;-72
2024/03/17 10:38:55;;;;;;;5.83;4.80;;;;;;;;;;5091052;28;20415;-69
2024/03/17 10:41:22;;;;;;;6.90;5.53;;;;;;;;;;5088373;28;20933;-72
2024/03/17 10:43:48;;;;;;;5.80;4.90;;;;;;;;;;5089448;28;20416;-70
2024/03/17 10:46:15;;;;;;;7.23;4.40;;;;;;;;;;5082000;28;20474;-71
2024/03/17 10:48:42;;;;;;;4.70;3.93;;;;;;;;;;5091240;28;20428;-70
2024/03/17 10:51:11;;;;;;;6.77;4.07;;;;;;;;;;5078977;28;20424;-71
2024/03/17 10:53:37;;;;;;;4.87;3.37;;;;;;;;;;5087980;28;20522;-70
2024/03/17 10:56:08;;;;;;;7.10;3.30;;;;;;;;;;5087705;28;20454;-70
2024/03/17 10:58:41;;;;;;;4.13;3.63;;;;;;;;;;5093175;28;20845;-69
2024/03/17 11:01:11;;;;;;;5.10;3.60;;;;;;;;;;5094595;28;20494;-69
2024/03/17 11:03:37;;;;;;;6.83;4.70;;;;;;;;;;5094051;28;20480;-71
2024/03/17 11:06:05;;;;;;;4.80;4.07;;;;;;;;;;5093646;28;20470;-69
2024/03/17 11:08:32;;;;;;;4.50;3.80;;;;;;;;;;5093016;28;20427;-70
2024/03/17 11:10:59;;;;;;;5.93;4.80;;;;;;;;;;5093985;28;20857;-69
2024/03/17 11:13:25;;;;;;;5.30;4.70;;;;;;;;;;5094386;28;20972;-69
2024/03/17 11:15:55;;;;;;;5.73;3.77;;;;;;;;;;5093697;28;20434;-70
2024/03/17 11:18:21;;;;;;;7.83;4.20;;;;;;;;;;5094071;28;20480;-69
2024/03/17 11:21:08;;;;;;;5.80;2.93;;;;;;;;;;5093697;28;20913;-69
2024/03/17 11:23:34;;;;;;;3.63;2.40;;;;;;;;;;5093098;28;20727;-69
2024/03/17 11:26:00;;;;;;;3.10;2.60;;;;;;;;;;5093317;28;20470;-68
2024/03/17 11:28:42;;;;;;;2.93;1.90;;;;;;;;;;5093565;28;20445;-69
2024/03/17 11:31:28;;;;;;;4.30;2.77;;;;;;;;;;5092438;28;20988;-69
2024/03/17 11:33:55;;;;;;;5.53;2.03;;;;;;;;;;5093401;28;20411;-70
2024/03/17 11:36:25;;;;;;;7.00;2.33;;;;;;;;;;5093505;28;20577;-70
2024/03/17 11:38:54;;;;;;;6.70;2.13;;;;;;;;;;5093571;28;20500;-74
2024/03/17 11:41:34;;;;;;;2.70;2.10;;;;;;;;;;5093703;28;20484;-71
2024/03/17 11:44:18;;;;;;;4.13;2.37;;;17.00;1.00;;;;;;5094219;28;20499;-73
2024/03/17 11:47:04;;;;;;;3.53;2.30;;;16.90;1.00;;;;;;5093760;28;20426;-73
2024/03/17 11:49:38;;;;;;;2.90;1.80;;;17.20;1.00;;;;;;5093556;28;20419;-73
2024/03/17 11:52:08;;;;;;;4.70;1.87;;;16.90;1.00;;;;;;5093444;28;20430;-73
2024/03/17 11:54:38;;;;;;;4.20;1.80;;;17.00;1.00;;;;;;5077145;28;20436;-73
2024/03/17 11:57:11;;;;;;;2.40;1.83;;;17.00;1.00;;;;;;5073575;28;20485;-74
2024/03/17 11:59:37;;;;;;;3.30;1.80;;;16.90;1.00;;;;;;5071840;28;20413;-72
2024/03/17 12:02:20;;;;;;;1.80;1.20;;;17.10;1.00;;;;;;5080211;28;20443;-72
2024/03/17 12:04:46;;;;;;;3.13;1.50;;;17.00;1.00;;;;;;5072934;28;20471;-72
2024/03/17 12:07:17;;;;;;;2.77;1.70;;;16.70;1.00;;;;;;5071641;28;20420;-72
2024/03/17 12:09:46;;;;;;;2.30;1.70;;;17.10;1.00;;;;;;5071859;28;20427;-73
2024/03/17 12:12:16;;;;;;;2.77;1.80;;;17.20;1.00;;;;;;5073005;28;20412;-73
2024/03/17 12:14:41;;;;;;;3.17;2.77;;;17.00;1.00;;;;;;5071575;28;20478;-73
2024/03/17 12:17:08;;;;;;;4.10;2.83;;;17.10;1.00;;;;;;5072501;28;20432;-71
2024/03/17 12:19:35;;;;;;;4.73;2.17;;;16.90;1.00;;;;;;5080244;28;20231;-72
2024/03/17 12:22:02;;;;;;;2.97;2.23;;;16.90;1.00;;;;;;5072540;28;20463;-72
2024/03/17 12:24:30;;;;;;;3.70;2.47;;;16.90;1.00;;;;;;5071385;28;20451;-73
2024/03/17 12:26:59;;;;;;;5.40;2.10;;;17.00;1.00;;;;;;5071459;28;20485;-72
2024/03/17 12:29:27;;;;;;;3.27;1.83;;;16.80;1.00;;;;;;5072672;28;20990;-72
2024/03/17 12:31:55;;;;;;;2.67;1.50;;;16.90;1.00;;;;;;5089859;28;20447;-75
2024/03/17 12:34:21;;;;;;;3.40;1.63;;;16.80;1.00;;;;;;5090685;28;20462;-73
2024/03/17 12:36:49;;;;;;;4.70;3.20;;;16.80;1.00;;;;;;5092772;28;20426;-71
2024/03/17 12:39:19;;;;;;;3.90;2.10;;;16.70;1.00;;;;;;5092321;28;20497;-73
2024/03/17 12:42:00;;;;;;;3.97;2.63;;;16.60;1.00;;;;;;5093700;28;20453;-74
2024/03/17 12:44:26;;;;;;;5.30;2.40;;;16.60;1.00;;;;;;5100411;28;20442;-72
2024/03/17 12:46:56;;;;;;;3.50;2.37;;;17.00;1.00;;;;;;5104196;28;20431;-71
2024/03/17 12:49:24;;;;;;;4.77;1.60;;;16.80;1.00;;;;;;5107579;28;20419;-73
2024/03/17 12:51:51;;;;;;;3.73;2.00;;;17.00;1.00;;;;;;5086380;28;20424;-71
2024/03/17 12:54:20;;;;;;;3.13;1.63;;;16.70;1.00;;;;;;5084468;28;20465;-73
2024/03/17 13:02:30;;;;;;;2.90;1.77;;;17.10;1.00;;;;;;5073733;28;20415;-73
2024/03/17 13:05:20;;;;;;;3.20;1.60;;;17.00;1.00;;;;;;5075875;28;20467;-73
2024/03/17 13:07:46;;;;;;;3.23;1.90;;;16.70;1.00;;;;;;5078160;28;20836;-74
2024/03/17 13:10:14;;;;;;;2.80;1.73;;;16.80;1.00;;;;;;5086660;28;20424;-72
2024/03/17 13:12:40;;;;;;;8.50;5.13;;;17.00;1.00;;;;;;5080331;28;20420;-72
2024/03/17 13:15:06;;;;;;;4.67;2.87;;;17.10;1.00;;;;;;5083973;28;20537;-70
2024/03/17 13:17:33;;;;;;;3.80;1.97;;;17.30;1.00;;;;;;5084877;28;20193;-71
2024/03/17 13:20:00;;;;;;;3.37;2.03;;;17.40;1.00;;;;;;5085698;28;20819;-70
2024/03/17 13:22:26;;;;;;;8.90;1.73;;;17.70;1.00;;;;;;5085187;28;20464;-72
2024/03/17 13:24:52;;;;;;;2.87;1.40;;;17.80;1.00;;;;;;5087498;28;20475;-73
2024/03/17 13:27:18;;;;;;;4.33;1.60;;;17.70;1.00;;;;;;5087205;28;20193;-74
2024/03/17 13:29:48;;;;;;;2.63;1.27;;;17.70;1.00;;;;;;5086524;28;20546;-73
2024/03/17 13:32:13;;;;;;;2.73;1.40;;;17.90;1.00;;;;;;5088431;28;20177;-70
2024/03/17 13:34:39;;;;;;;2.30;1.63;;;17.30;1.00;;;;;;5085121;28;20558;-70
2024/03/17 13:37:05;;;;;;;3.73;1.83;;;17.50;1.00;;;;;;5087059;28;20185;-73
2024/03/17 13:39:34;;;;;;;2.40;1.53;;;17.70;1.00;;;;;;5088071;28;20457;-71
2024/03/17 13:42:03;;;;;;;3.30;2.53;;;17.60;1.00;;;;;;5086410;28;20189;-73
2024/03/17 13:44:32;;;;;;;2.10;1.40;;;17.60;1.00;;;;;;5081802;28;20538;-70